createdAt,value
2019-05-21T00:00:38.655Z,98.03
2019-05-21T00:03:11.585Z,97.44
2019-05-21T00:05:44.571Z,97.44
2019-05-21T00:08:17.674Z,97.85
2019-05-21T00:10:50.588Z,97.85
2019-05-21T00:13:23.541Z,97.81
2019-05-21T00:15:56.511Z,98.15
2019-05-21T00:18:29.492Z,98.08
2019-05-21T00:21:02.676Z,98.07
2019-05-21T00:23:35.566Z,98.10
2019-05-21T00:26:08.496Z,98.21
2019-05-21T00:28:39.960Z,97.67
2019-05-21T00:31:49.403Z,97.67
2019-05-21T00:34:58.811Z,97.45
2019-05-21T00:38:08.104Z,97.45
2019-05-21T00:41:17.088Z,97.08
2019-05-21T00:43:57.431Z,97.25
2019-05-21T00:46:30.361Z,97.25
2019-05-21T00:49:03.473Z,97.48
2019-05-21T00:51:36.435Z,97.95
2019-05-21T00:54:09.497Z,97.95
2019-05-21T00:56:42.429Z,98.03
2019-05-21T00:59:15.432Z,98.03
2019-05-21T01:01:48.512Z,97.37
2019-05-21T01:04:21.431Z,97.18
2019-05-21T01:06:54.422Z,97.07
2019-05-21T01:09:27.819Z,97.84
2019-05-21T01:12:01.146Z,97.84
2019-05-21T01:14:34.214Z,97.98
2019-05-21T01:17:07.201Z,97.80
2019-05-21T01:19:40.232Z,98.52
2019-05-21T01:22:13.133Z,98.52
2019-05-21T01:24:46.127Z,98.34
2019-05-21T01:27:19.379Z,98.66
2019-05-21T01:29:52.398Z,98.58
2019-05-21T01:32:25.442Z,98.79
2019-05-21T01:34:58.748Z,98.85
2019-05-21T01:37:31.634Z,98.85
2019-05-21T01:40:05.059Z,98.66
2019-05-21T01:42:38.498Z,98.96
2019-05-21T01:45:11.774Z,99.59
2019-05-21T01:47:44.657Z,99.59
2019-05-21T01:50:17.603Z,99.36
2019-05-21T01:52:50.559Z,99.49
2019-05-21T01:55:23.468Z,99.45
2019-05-21T01:57:56.376Z,99.34
2019-05-21T02:00:29.465Z,99.21
2019-05-21T02:03:02.378Z,99.81
2019-05-21T02:05:35.543Z,99.00
2019-05-21T02:08:08.577Z,99.65
2019-05-21T02:10:41.588Z,99.65
2019-05-21T02:13:14.511Z,99.26
2019-05-21T02:15:47.818Z,99.47
2019-05-21T02:18:20.837Z,99.47
2019-05-21T02:20:54.274Z,99.98
2019-05-21T02:23:27.279Z,99.98
2019-05-21T02:26:00.179Z,99.64
2019-05-21T02:28:33.201Z,99.83
2019-05-21T02:31:06.113Z,99.45
2019-05-21T02:33:39.376Z,99.45
2019-05-21T02:36:12.463Z,99.70
2019-05-21T02:38:45.758Z,99.92
2019-05-21T02:41:18.752Z,99.92
2019-05-21T02:43:51.770Z,99.68
2019-05-21T02:46:24.689Z,99.92
2019-05-21T02:48:57.626Z,99.47
2019-05-21T02:51:30.524Z,99.47
2019-05-21T02:54:03.585Z,98.96
2019-05-21T02:56:36.502Z,98.91
2019-05-21T02:59:09.425Z,99.12
2019-05-21T03:01:42.483Z,99.12
2019-05-21T03:04:15.412Z,99.17
2019-05-21T03:06:48.409Z,99.33
2019-05-21T03:09:21.493Z,99.33
2019-05-21T03:11:54.475Z,99.86
2019-05-21T03:14:27.418Z,100.00
2019-05-21T03:17:00.440Z,100.00
2019-05-21T03:19:33.487Z,100.00
2019-05-21T03:22:06.563Z,100.00
2019-05-21T03:24:39.668Z,100.00
2019-05-21T03:27:12.621Z,100.00
2019-05-21T03:29:45.854Z,100.00
2019-05-21T03:32:18.751Z,100.00
2019-05-21T03:34:51.672Z,100.00
2019-05-21T03:37:24.637Z,100.00
2019-05-21T03:39:57.860Z,100.00
2019-05-21T03:42:31.093Z,100.00
2019-05-21T03:45:07.906Z,100.00
2019-05-21T03:47:39.902Z,100.00
2019-05-21T03:50:13.080Z,100.00
2019-05-21T03:52:46.305Z,100.00
2019-05-21T03:55:19.727Z,100.00
2019-05-21T03:57:52.903Z,100.00
2019-05-21T04:00:25.967Z,100.00
2019-05-21T04:02:58.884Z,100.00
2019-05-21T04:05:31.896Z,100.00
2019-05-21T04:08:04.804Z,100.00
2019-05-21T04:10:37.897Z,100.00
2019-05-21T04:13:10.775Z,100.00
2019-05-21T04:15:43.882Z,100.00
2019-05-21T04:18:16.847Z,100.00
2019-05-21T04:20:49.886Z,100.00
2019-05-21T04:23:23.158Z,100.00
2019-05-21T04:25:56.417Z,100.00
2019-05-21T04:28:29.418Z,100.00
2019-05-21T04:31:02.384Z,100.00
2019-05-21T04:33:35.325Z,100.00
2019-05-21T04:36:10.144Z,100.00
2019-05-21T04:38:43.427Z,100.00
2019-05-21T04:41:16.653Z,100.00
2019-05-21T04:43:49.576Z,100.00
2019-05-21T04:46:22.598Z,100.00
2019-05-21T04:48:55.592Z,100.00
2019-05-21T04:51:28.592Z,100.00
2019-05-21T04:54:01.568Z,100.00
2019-05-21T04:56:34.749Z,100.00
2019-05-21T04:59:07.670Z,100.00
2019-05-21T05:01:40.991Z,100.00
2019-05-21T05:04:13.892Z,100.00
2019-05-21T05:06:46.944Z,100.00
2019-05-21T05:09:20.013Z,100.00
2019-05-21T05:11:53.025Z,100.00
2019-05-21T05:14:26.208Z,100.00
2019-05-21T05:16:59.118Z,100.00
2019-05-21T05:19:32.121Z,100.00
2019-05-21T05:22:05.066Z,99.89
2019-05-21T05:24:37.968Z,99.89
2019-05-21T05:27:11.021Z,99.78
2019-05-21T05:29:44.031Z,99.44
2019-05-21T05:32:17.084Z,99.52
2019-05-21T05:34:49.994Z,99.71
2019-05-21T05:37:23.004Z,99.90
2019-05-21T05:39:55.885Z,99.90
2019-05-21T05:42:28.870Z,99.45
2019-05-21T05:45:02.071Z,99.45
2019-05-21T05:47:35.281Z,99.53
2019-05-21T05:50:09.088Z,98.27
2019-05-21T05:52:42.301Z,98.27
2019-05-21T05:55:15.395Z,98.42
2019-05-21T05:57:48.609Z,98.09
2019-05-21T06:00:22.130Z,98.02
2019-05-21T06:02:55.053Z,97.75
2019-05-21T06:05:28.082Z,97.75
2019-05-21T06:08:01.172Z,97.94
2019-05-21T06:10:34.281Z,97.89
2019-05-21T06:13:07.271Z,97.89
2019-05-21T06:15:40.243Z,98.11
2019-05-21T06:18:13.156Z,98.13
2019-05-21T06:20:46.329Z,98.11
2019-05-21T06:23:19.227Z,98.11
2019-05-21T06:25:52.203Z,97.57
2019-05-21T06:28:25.086Z,96.39
2019-05-21T06:30:58.298Z,96.39
2019-05-21T06:33:31.197Z,96.03
2019-05-21T06:36:04.294Z,96.35
2019-05-21T06:38:37.289Z,96.35
2019-05-21T06:41:10.344Z,95.76
2019-05-21T06:43:43.254Z,95.77
2019-05-21T06:46:16.221Z,95.55
2019-05-21T06:48:49.164Z,95.94
2019-05-21T06:51:22.427Z,95.81
2019-05-21T06:53:55.403Z,95.29
2019-05-21T06:56:28.323Z,95.75
2019-05-21T06:59:01.708Z,95.75
2019-05-21T07:01:35.093Z,96.04
2019-05-21T07:04:08.019Z,95.33
2019-05-21T07:06:44.271Z,95.17
2019-05-21T07:09:15.758Z,95.17
2019-05-21T07:11:48.724Z,95.77
2019-05-21T07:14:21.639Z,95.77
2019-05-21T07:16:54.598Z,95.25
2019-05-21T07:19:27.590Z,95.58
2019-05-21T07:22:12.081Z,95.21
2019-05-21T07:24:35.916Z,95.21
2019-05-21T07:27:09.123Z,94.84
2019-05-21T07:29:42.033Z,94.84
2019-05-21T07:32:14.921Z,93.95
2019-05-21T07:34:47.980Z,94.17
2019-05-21T07:37:21.047Z,94.17
2019-05-21T07:39:53.961Z,94.10
2019-05-21T07:42:26.960Z,93.14
2019-05-21T07:44:59.864Z,93.00
2019-05-21T07:47:32.915Z,93.09
2019-05-21T07:50:06.966Z,92.24
2019-05-21T07:52:40.198Z,92.24
2019-05-21T07:55:13.229Z,91.49
2019-05-21T07:57:46.434Z,90.93
2019-05-21T08:00:20.429Z,90.93
2019-05-21T08:02:53.487Z,89.55
2019-05-21T08:05:26.551Z,89.97
2019-05-21T08:07:59.545Z,89.98
2019-05-21T08:10:32.758Z,89.82
2019-05-21T08:13:05.832Z,87.77
2019-05-21T08:15:39.117Z,87.77
2019-05-21T08:18:12.123Z,87.15
2019-05-21T08:20:45.209Z,87.15
2019-05-21T08:23:18.610Z,87.13
2019-05-21T08:25:51.508Z,85.28
2019-05-21T08:28:24.404Z,85.15
2019-05-21T08:30:57.311Z,84.79
2019-05-21T08:33:30.794Z,84.81
2019-05-21T08:36:04.350Z,84.81
2019-05-21T08:38:37.954Z,84.33
2019-05-21T08:41:10.985Z,84.33
2019-05-21T08:43:43.949Z,84.38
2019-05-21T08:46:16.941Z,84.23
2019-05-21T08:48:49.883Z,84.68
2019-05-21T08:51:23.085Z,83.57
2019-05-21T08:53:56.002Z,83.57
2019-05-21T08:56:28.906Z,83.96
2019-05-21T08:59:01.937Z,84.45
2019-05-21T09:01:34.915Z,83.65
2019-05-21T09:04:07.924Z,83.65
2019-05-21T09:06:40.887Z,83.98
2019-05-21T09:09:13.931Z,84.56
2019-05-21T09:11:47.190Z,84.56
2019-05-21T09:14:20.087Z,85.52
2019-05-21T09:16:53.047Z,85.52
2019-05-21T09:19:26.145Z,86.72
2019-05-21T09:21:59.091Z,86.73
2019-05-21T09:24:32.713Z,87.14
2019-05-21T09:27:05.730Z,85.95
2019-05-21T09:29:38.655Z,85.00
2019-05-21T09:32:11.579Z,85.22
2019-05-21T09:34:49.381Z,85.22
2019-05-21T09:37:20.475Z,86.20
2019-05-21T09:39:53.692Z,85.02
2019-05-21T09:42:26.599Z,84.62
2019-05-21T09:44:59.668Z,84.75
2019-05-21T09:47:32.703Z,84.75
2019-05-21T09:50:07.358Z,85.37
2019-05-21T09:52:40.318Z,85.23
2019-05-21T09:55:13.307Z,85.90
2019-05-21T09:57:46.685Z,83.72
2019-05-21T10:00:20.391Z,83.72
2019-05-21T10:02:53.286Z,85.36
2019-05-21T10:05:26.402Z,84.68
2019-05-21T10:07:59.497Z,84.68
2019-05-21T10:10:32.532Z,84.40
2019-05-21T10:13:05.568Z,84.65
2019-05-21T10:15:38.637Z,84.65
2019-05-21T10:18:11.959Z,84.50
2019-05-21T10:20:44.993Z,84.50
2019-05-21T10:23:17.959Z,82.33
2019-05-21T10:25:51.085Z,83.22
2019-05-21T10:28:23.994Z,81.83
2019-05-21T10:30:56.970Z,81.83
2019-05-21T10:33:29.927Z,81.40
2019-05-21T10:36:03.237Z,81.25
2019-05-21T10:38:36.246Z,79.57
2019-05-21T10:41:09.334Z,79.57
2019-05-21T10:43:42.411Z,77.79
2019-05-21T10:46:15.322Z,77.79
2019-05-21T10:48:48.639Z,74.86
2019-05-21T10:51:21.528Z,72.34
2019-05-21T10:53:54.876Z,71.57
2019-05-21T10:56:28.261Z,74.55
2019-05-21T10:59:01.265Z,76.62
2019-05-21T11:01:34.190Z,76.34
2019-05-21T11:04:07.132Z,78.03
2019-05-21T11:06:40.266Z,78.03
2019-05-21T11:09:13.484Z,75.00
2019-05-21T11:11:46.410Z,75.00
2019-05-21T11:14:19.738Z,74.56
2019-05-21T11:16:53.059Z,74.74
2019-05-21T11:19:26.038Z,76.24
2019-05-21T11:21:58.933Z,76.34
2019-05-21T11:24:31.905Z,77.30
2019-05-21T11:27:05.096Z,76.08
2019-05-21T11:29:37.998Z,76.08
2019-05-21T11:32:10.964Z,77.33
2019-05-21T11:34:44.164Z,78.90
2019-05-21T11:37:17.114Z,79.74
2019-05-21T11:39:50.104Z,77.93
2019-05-21T11:42:23.082Z,76.85
2019-05-21T11:44:56.083Z,77.35
2019-05-21T11:47:29.173Z,77.21
2019-05-21T11:50:02.296Z,78.99
2019-05-21T11:52:35.730Z,78.88
2019-05-21T11:55:09.028Z,79.77
2019-05-21T11:57:41.938Z,82.86
2019-05-21T12:00:15.495Z,82.83
2019-05-21T12:02:48.456Z,82.83
2019-05-21T12:05:21.507Z,82.47
2019-05-21T12:07:54.464Z,81.53
2019-05-21T12:10:27.598Z,81.72
2019-05-21T12:13:00.777Z,81.46
2019-05-21T12:15:33.706Z,79.83
2019-05-21T12:18:06.708Z,76.62
2019-05-21T12:20:39.633Z,75.60
2019-05-21T12:23:12.611Z,75.60
2019-05-21T12:25:45.611Z,75.83
2019-05-21T12:28:18.541Z,76.47
2019-05-21T12:30:51.770Z,76.47
2019-05-21T12:33:24.680Z,74.98
2019-05-21T12:35:57.767Z,72.78
2019-05-21T12:38:30.754Z,72.78
2019-05-21T12:41:03.831Z,76.58
2019-05-21T12:43:36.724Z,77.01
2019-05-21T12:46:10.855Z,79.18
2019-05-21T12:48:43.838Z,79.18
2019-05-21T12:51:17.116Z,80.15
2019-05-21T12:53:50.099Z,80.23
2019-05-21T12:56:23.010Z,81.46
2019-05-21T12:58:55.916Z,81.46
2019-05-21T13:01:29.482Z,81.38
2019-05-21T13:04:02.484Z,81.22
2019-05-21T13:06:35.428Z,80.84
2019-05-21T13:09:08.921Z,80.01
2019-05-21T13:11:41.924Z,80.01
2019-05-21T13:14:18.533Z,80.41
2019-05-21T13:16:49.906Z,79.85
2019-05-21T13:19:23.274Z,82.72
2019-05-21T13:21:56.433Z,82.72
2019-05-21T13:24:29.462Z,83.08
2019-05-21T13:27:02.360Z,83.08
2019-05-21T13:29:35.430Z,82.71
2019-05-21T13:32:08.406Z,80.62
2019-05-21T13:34:41.283Z,80.03
2019-05-21T13:37:14.192Z,80.37
2019-05-21T13:39:50.238Z,81.86
2019-05-21T13:42:22.032Z,81.86
2019-05-21T13:44:55.250Z,82.27
2019-05-21T13:47:28.086Z,82.35
2019-05-21T13:50:00.942Z,84.40
2019-05-21T13:52:33.883Z,84.40
2019-05-21T13:55:07.947Z,84.93
2019-05-21T13:57:41.066Z,84.61
2019-05-21T14:00:15.315Z,83.84
2019-05-21T14:02:48.729Z,84.01
2019-05-21T14:05:21.660Z,83.35
2019-05-21T14:07:54.505Z,83.31
2019-05-21T14:10:27.357Z,83.31
2019-05-21T14:13:00.574Z,85.34
2019-05-21T14:15:33.409Z,83.54
2019-05-21T14:18:06.416Z,84.16
2019-05-21T14:20:39.307Z,83.68
2019-05-21T14:23:12.151Z,83.64
2019-05-21T14:25:45.081Z,83.64
2019-05-21T14:28:17.920Z,83.58
2019-05-21T14:30:50.878Z,84.51
2019-05-21T14:33:23.787Z,84.19
2019-05-21T14:35:56.646Z,84.72
2019-05-21T14:38:29.852Z,84.72
2019-05-21T14:41:03.138Z,84.79
2019-05-21T14:43:36.149Z,84.79
2019-05-21T14:46:09.006Z,83.73
2019-05-21T14:48:41.849Z,84.29
2019-05-21T14:51:14.988Z,84.20
2019-05-21T14:53:47.860Z,84.20
2019-05-21T14:56:21.042Z,85.18
2019-05-21T14:58:53.941Z,86.58
2019-05-21T15:01:26.805Z,86.58
2019-05-21T15:03:59.708Z,86.30
2019-05-21T15:06:32.566Z,86.79
2019-05-21T15:09:05.681Z,87.55
2019-05-21T15:11:38.555Z,86.93
2019-05-21T15:14:11.413Z,86.08
2019-05-21T15:16:44.588Z,86.08
2019-05-21T15:19:17.526Z,87.52
2019-05-21T15:21:50.516Z,88.45
2019-05-21T15:24:23.358Z,88.45
2019-05-21T15:26:56.376Z,87.75
2019-05-21T15:29:29.233Z,87.77
2019-05-21T15:32:02.112Z,87.77
2019-05-21T15:34:34.956Z,87.98
2019-05-21T15:37:07.960Z,87.99
2019-05-21T15:39:40.867Z,87.90
2019-05-21T15:42:13.707Z,87.90
2019-05-21T15:44:46.561Z,87.80
2019-05-21T15:47:19.393Z,87.80
2019-05-21T15:49:52.481Z,88.29
2019-05-21T15:52:25.329Z,87.92
2019-05-21T15:54:58.271Z,87.92
2019-05-21T15:57:31.230Z,87.27
2019-05-21T16:00:05.749Z,88.67
2019-05-21T16:02:38.607Z,89.08
2019-05-21T16:05:12.310Z,89.08
2019-05-21T16:07:45.156Z,89.45
2019-05-21T16:10:18.172Z,89.95
2019-05-21T16:12:54.026Z,89.56
2019-05-21T16:15:25.703Z,89.46
2019-05-21T16:17:58.532Z,89.46
2019-05-21T16:20:31.462Z,89.53
2019-05-21T16:23:04.377Z,89.36
2019-05-21T16:25:37.234Z,89.36
2019-05-21T16:28:10.158Z,89.64
2019-05-21T16:30:43.231Z,90.04
2019-05-21T16:33:16.316Z,90.52
2019-05-21T16:35:49.483Z,90.58
2019-05-21T16:38:22.692Z,91.13
2019-05-21T16:40:55.630Z,91.21
2019-05-21T16:43:28.468Z,91.21
2019-05-21T16:46:01.395Z,91.56
2019-05-21T16:48:34.251Z,91.56
2019-05-21T16:51:07.208Z,91.96
2019-05-21T16:53:40.150Z,91.78
2019-05-21T16:56:13.252Z,91.76
2019-05-21T16:58:46.164Z,92.53
2019-05-21T17:01:19.008Z,93.14
2019-05-21T17:03:59.534Z,93.10
2019-05-21T17:06:26.567Z,93.22
2019-05-21T17:08:59.392Z,92.99
2019-05-21T17:11:32.319Z,92.79
2019-05-21T17:14:05.236Z,92.46
2019-05-21T17:16:38.085Z,91.86
2019-05-21T17:19:10.948Z,89.94
2019-05-21T17:21:43.811Z,89.77
2019-05-21T17:24:16.664Z,89.77
2019-05-21T17:26:49.512Z,89.75
2019-05-21T17:29:22.511Z,90.67
2019-05-21T17:31:55.339Z,90.67
2019-05-21T17:34:29.007Z,91.08
2019-05-21T17:37:01.855Z,90.68
2019-05-21T17:39:34.770Z,91.05
2019-05-21T17:42:15.579Z,91.47
2019-05-21T17:44:42.488Z,91.69
2019-05-21T17:47:15.773Z,91.57
2019-05-21T17:49:49.347Z,91.57
2019-05-21T17:52:22.896Z,91.10
2019-05-21T17:54:57.182Z,91.72
2019-05-21T17:57:30.347Z,91.68
2019-05-21T18:00:04.615Z,91.68
2019-05-21T18:02:37.666Z,91.69
2019-05-21T18:05:11.059Z,91.43
2019-05-21T18:07:44.333Z,91.08
2019-05-21T18:10:17.480Z,91.06
2019-05-21T18:12:50.440Z,90.81
2019-05-21T18:15:23.434Z,90.81
2019-05-21T18:17:56.718Z,90.94
2019-05-21T18:20:30.092Z,91.22
2019-05-21T18:23:03.174Z,91.22
2019-05-21T18:25:36.639Z,91.63
2019-05-21T18:28:09.657Z,91.87
2019-05-21T18:30:43.555Z,91.87
2019-05-21T18:33:17.142Z,92.19
2019-05-21T18:35:50.288Z,92.32
2019-05-21T18:38:23.371Z,92.34
2019-05-21T18:40:56.428Z,92.73
2019-05-21T18:43:29.723Z,92.68
2019-05-21T18:46:02.727Z,92.61
2019-05-21T18:48:35.654Z,93.09
2019-05-21T18:51:08.648Z,93.09
2019-05-21T18:53:41.540Z,93.11
2019-05-21T18:56:14.440Z,93.64
2019-05-21T18:58:47.407Z,93.64
2019-05-21T19:01:20.776Z,94.26
2019-05-21T19:03:53.719Z,94.26
2019-05-21T19:06:26.846Z,95.25
2019-05-21T19:08:59.779Z,95.25
2019-05-21T19:11:32.770Z,95.34
2019-05-21T19:14:06.090Z,93.93
2019-05-21T19:16:39.176Z,93.93
2019-05-21T19:19:12.274Z,93.78
2019-05-21T19:21:45.235Z,94.26
2019-05-21T19:24:18.241Z,94.65
2019-05-21T19:26:51.359Z,95.24
2019-05-21T19:29:24.375Z,95.07
2019-05-21T19:31:57.668Z,94.76
2019-05-21T19:34:30.770Z,94.76
2019-05-21T19:37:04.556Z,93.53
2019-05-21T19:39:37.886Z,93.60
2019-05-21T19:42:10.947Z,93.60
2019-05-21T19:44:44.055Z,92.93
2019-05-21T19:47:17.029Z,92.93
2019-05-21T19:49:50.049Z,92.40
2019-05-21T19:52:23.065Z,92.38
2019-05-21T19:54:56.012Z,92.60
2019-05-21T19:57:29.026Z,91.85
2019-05-21T20:00:02.191Z,91.65
2019-05-21T20:02:35.473Z,90.98
2019-05-21T20:05:09.196Z,91.34
2019-05-21T20:07:42.429Z,91.52
2019-05-21T20:10:16.558Z,91.52
2019-05-21T20:12:49.490Z,91.04
2019-05-21T20:15:22.739Z,91.24
2019-05-21T20:18:07.026Z,91.22
2019-05-21T20:20:31.569Z,90.83
2019-05-21T20:23:07.863Z,90.96
2019-05-21T20:25:55.443Z,90.97
2019-05-21T20:28:15.007Z,90.97
2019-05-21T20:30:48.651Z,91.13
2019-05-21T20:33:21.612Z,91.40
2019-05-21T20:35:54.659Z,91.67
2019-05-21T20:38:28.881Z,91.65
2019-05-21T20:41:02.581Z,91.12
2019-05-21T20:43:35.641Z,91.87
2019-05-21T20:46:10.095Z,91.87
2019-05-21T20:48:43.258Z,91.34
2019-05-21T20:51:16.874Z,91.13
2019-05-21T20:53:50.012Z,91.25
2019-05-21T20:56:22.945Z,91.42
2019-05-21T20:58:55.932Z,91.80
2019-05-21T21:01:28.918Z,91.80
2019-05-21T21:04:01.960Z,91.74
2019-05-21T21:06:36.153Z,91.92
2019-05-21T21:09:09.282Z,91.92
2019-05-21T21:11:42.654Z,91.74
2019-05-21T21:14:18.306Z,92.44
2019-05-21T21:16:50.513Z,92.52
2019-05-21T21:19:23.483Z,92.52
2019-05-21T21:21:56.591Z,92.29
2019-05-21T21:24:29.533Z,92.74
2019-05-21T21:27:02.715Z,92.74
2019-05-21T21:29:35.761Z,91.44
2019-05-21T21:32:09.011Z,92.11
2019-05-21T21:34:42.018Z,92.37
2019-05-21T21:37:15.866Z,92.66
2019-05-21T21:39:49.043Z,92.74
2019-05-21T21:42:22.413Z,92.74
2019-05-21T21:44:55.514Z,92.88
2019-05-21T21:47:28.811Z,92.88
2019-05-21T21:50:03.409Z,93.23
2019-05-21T21:52:36.524Z,93.33
2019-05-21T21:55:10.293Z,93.43
2019-05-21T21:57:43.319Z,94.33
2019-05-21T22:01:07.539Z,94.33
2019-05-21T22:03:42.260Z,94.30
2019-05-21T22:06:16.910Z,94.72
2019-05-21T22:08:50.239Z,94.72
2019-05-21T22:11:23.383Z,94.32
2019-05-21T22:13:56.622Z,94.27
2019-05-21T22:16:30.004Z,94.27
2019-05-21T22:19:03.058Z,94.78
2019-05-21T22:21:36.067Z,94.40
2019-05-21T22:24:09.453Z,94.51
2019-05-21T22:26:42.582Z,94.46
2019-05-21T22:29:15.876Z,94.70
2019-05-21T22:31:49.335Z,94.52
2019-05-21T22:34:22.421Z,94.87
2019-05-21T22:36:55.600Z,94.69
2019-05-21T22:39:29.069Z,94.66
2019-05-21T22:42:02.193Z,95.10
2019-05-21T22:44:35.805Z,95.17
2019-05-21T22:47:08.706Z,95.23
2019-05-21T22:49:41.640Z,96.39
2019-05-21T22:52:15.309Z,96.39
2019-05-21T22:54:48.279Z,96.55
2019-05-21T22:57:21.231Z,96.80
2019-05-21T22:59:54.217Z,96.83
2019-05-21T23:02:27.215Z,96.83
2019-05-21T23:05:00.268Z,96.96
2019-05-21T23:07:33.792Z,96.95
2019-05-21T23:10:06.981Z,97.37
2019-05-21T23:12:40.029Z,97.18
2019-05-21T23:15:24.422Z,97.15
2019-05-21T23:17:48.688Z,97.15
2019-05-21T23:20:22.363Z,97.36
2019-05-21T23:22:55.552Z,97.44
2019-05-21T23:25:28.613Z,96.94
2019-05-21T23:28:01.892Z,96.94
2019-05-21T23:30:35.035Z,96.88
2019-05-21T23:33:08.355Z,96.93
2019-05-21T23:35:41.360Z,96.87
2019-05-21T23:38:14.644Z,97.09
2019-05-21T23:40:48.454Z,97.09
2019-05-21T23:43:21.446Z,97.11
2019-05-21T23:45:54.502Z,97.23
2019-05-21T23:48:28.024Z,97.31
2019-05-21T23:51:01.256Z,98.21
2019-05-21T23:53:34.312Z,98.21
2019-05-21T23:56:07.587Z,98.42
2019-05-21T23:58:40.899Z,98.71
